Terminal Aerodrome Forecast
Issued by NWS Grand Forks, ND

Home | Current Version | Previous Version | Text Only | Print | Product List | Glossary On
Versions: 1 2 3 4 5 6 7 8 9 10 11 12 13 14 15 16 17 18
731
FTUS43 KFGF 052339
TAFFAR
TAF
KFAR 052339Z 0600/0624 30007KT P6SM SCT100
     FM060800 22005KT P6SM BKN250
     FM061400 18011KT P6SM BKN120
     FM062100 20015G22KT P6SM BKN100=

USA.gov is the U.S. government's official web portal to all federal, state and local government web resources and services.